sensor_id;sensor_type;location;lat;lon;timestamp;P1;P2;P0
53658;PMS5003;41524;35.624;139.698;2024-02-21T00:00:15;12.00;12.00;
53658;PMS5003;41524;35.624;139.698;2024-02-21T00:05:09;8.00;8.00;
53658;PMS5003;41524;35.624;139.698;2024-02-21T00:10:10;10.00;10.00;
53658;PMS5003;41524;35.624;139.698;2024-02-21T00:15:09;11.00;11.00;
53658;PMS5003;41524;35.624;139.698;2024-02-21T00:20:09;7.00;7.00;
53658;PMS5003;41524;35.624;139.698;2024-02-21T00:25:31;9.00;9.00;
53658;PMS5003;41524;35.624;139.698;2024-02-21T00:30:10;8.00;8.00;
53658;PMS5003;41524;35.624;139.698;2024-02-21T00:35:09;10.00;9.00;
53658;PMS5003;41524;35.624;139.698;2024-02-21T00:40:09;11.00;11.00;
53658;PMS5003;41524;35.624;139.698;2024-02-21T00:45:09;15.00;13.00;
53658;PMS5003;41524;35.624;139.698;2024-02-21T00:50:09;8.00;8.00;
53658;PMS5003;41524;35.624;139.698;2024-02-21T00:55:17;13.00;11.00;
53658;PMS5003;41524;35.624;139.698;2024-02-21T01:00:09;9.00;9.00;
53658;PMS5003;41524;35.624;139.698;2024-02-21T01:05:08;11.00;11.00;
53658;PMS5003;41524;35.624;139.698;2024-02-21T01:10:09;9.00;7.00;
53658;PMS5003;41524;35.624;139.698;2024-02-21T01:15:09;10.00;9.00;
53658;PMS5003;41524;35.624;139.698;2024-02-21T01:20:09;9.00;7.00;
53658;PMS5003;41524;35.624;139.698;2024-02-21T01:25:08;8.00;8.00;
53658;PMS5003;41524;35.624;139.698;2024-02-21T01:30:09;8.00;8.00;
53658;PMS5003;41524;35.624;139.698;2024-02-21T01:35:10;8.00;7.00;
53658;PMS5003;41524;35.624;139.698;2024-02-21T01:40:10;8.00;7.00;
53658;PMS5003;41524;35.624;139.698;2024-02-21T01:45:10;4.00;4.00;
53658;PMS5003;41524;35.624;139.698;2024-02-21T01:50:09;4.00;3.00;
53658;PMS5003;41524;35.624;139.698;2024-02-21T01:55:09;4.00;4.00;
53658;PMS5003;41524;35.624;139.698;2024-02-21T02:00:09;2.00;2.00;
53658;PMS5003;41524;35.624;139.698;2024-02-21T02:05:09;3.00;2.00;
53658;PMS5003;41524;35.624;139.698;2024-02-21T02:10:09;3.00;3.00;
53658;PMS5003;41524;35.624;139.698;2024-02-21T02:15:09;3.00;3.00;
53658;PMS5003;41524;35.624;139.698;2024-02-21T02:20:08;6.00;3.00;
53658;PMS5003;41524;35.624;139.698;2024-02-21T02:25:08;6.00;5.00;
53658;PMS5003;41524;35.624;139.698;2024-02-21T02:30:09;6.00;6.00;
53658;PMS5003;41524;35.624;139.698;2024-02-21T02:35:10;6.00;4.00;
53658;PMS5003;41524;35.624;139.698;2024-02-21T02:40:09;5.00;5.00;
53658;PMS5003;41524;35.624;139.698;2024-02-21T02:45:09;5.00;5.00;
53658;PMS5003;41524;35.624;139.698;2024-02-21T02:50:10;2.00;2.00;
53658;PMS5003;41524;35.624;139.698;2024-02-21T02:55:09;4.00;2.00;
53658;PMS5003;41524;35.624;139.698;2024-02-21T03:00:10;4.00;4.00;
53658;PMS5003;41524;35.624;139.698;2024-02-21T03:05:12;5.00;5.00;
53658;PMS5003;41524;35.624;139.698;2024-02-21T03:10:23;5.00;5.00;
53658;PMS5003;41524;35.624;139.698;2024-02-21T03:15:10;6.00;5.00;
53658;PMS5003;41524;35.624;139.698;2024-02-21T03:20:14;6.00;6.00;
53658;PMS5003;41524;35.624;139.698;2024-02-21T03:25:09;10.00;8.00;
53658;PMS5003;41524;35.624;139.698;2024-02-21T03:30:09;5.00;5.00;
53658;PMS5003;41524;35.624;139.698;2024-02-21T03:35:10;8.00;8.00;
53658;PMS5003;41524;35.624;139.698;2024-02-21T03:40:10;5.00;5.00;
53658;PMS5003;41524;35.624;139.698;2024-02-21T03:45:15;6.00;5.00;
53658;PMS5003;41524;35.624;139.698;2024-02-21T03:50:10;3.00;3.00;
53658;PMS5003;41524;35.624;139.698;2024-02-21T03:55:10;2.00;2.00;
53658;PMS5003;41524;35.624;139.698;2024-02-21T04:00:10;3.00;3.00;
53658;PMS5003;41524;35.624;139.698;2024-02-21T04:05:10;4.00;3.00;
53658;PMS5003;41524;35.624;139.698;2024-02-21T04:10:10;3.00;3.00;
53658;PMS5003;41524;35.624;139.698;2024-02-21T04:15:09;2.00;2.00;
53658;PMS5003;41524;35.624;139.698;2024-02-21T04:20:13;2.00;2.00;
53658;PMS5003;41524;35.624;139.698;2024-02-21T04:25:09;3.00;3.00;
53658;PMS5003;41524;35.624;139.698;2024-02-21T04:30:10;3.00;3.00;
53658;PMS5003;41524;35.624;139.698;2024-02-21T04:37:32;3.00;3.00;
53658;PMS5003;41524;35.624;139.698;2024-02-21T04:40:16;3.00;2.00;
53658;PMS5003;41524;35.624;139.698;2024-02-21T04:45:11;2.00;2.00;
53658;PMS5003;41524;35.624;139.698;2024-02-21T04:50:09;2.00;2.00;
53658;PMS5003;41524;35.624;139.698;2024-02-21T04:55:09;2.00;2.00;
53658;PMS5003;41524;35.624;139.698;2024-02-21T05:00:15;1.00;1.00;
53658;PMS5003;41524;35.624;139.698;2024-02-21T05:05:09;2.00;2.00;
53658;PMS5003;41524;35.624;139.698;2024-02-21T05:10:09;2.00;2.00;
53658;PMS5003;41524;35.624;139.698;2024-02-21T05:15:08;3.00;3.00;
53658;PMS5003;41524;35.624;139.698;2024-02-21T05:20:09;3.00;3.00;
53658;PMS5003;41524;35.624;139.698;2024-02-21T05:25:09;1.00;1.00;
53658;PMS5003;41524;35.624;139.698;2024-02-21T05:30:11;4.00;4.00;
53658;PMS5003;41524;35.624;139.698;2024-02-21T05:35:09;4.00;4.00;
53658;PMS5003;41524;35.624;139.698;2024-02-21T05:40:10;3.00;3.00;
53658;PMS5003;41524;35.624;139.698;2024-02-21T05:45:33;3.00;2.00;
53658;PMS5003;41524;35.624;139.698;2024-02-21T05:50:09;4.00;4.00;
53658;PMS5003;41524;35.624;139.698;2024-02-21T05:55:09;2.00;2.00;
53658;PMS5003;41524;35.624;139.698;2024-02-21T06:00:09;4.00;3.00;
53658;PMS5003;41524;35.624;139.698;2024-02-21T06:05:09;3.00;3.00;
53658;PMS5003;41524;35.624;139.698;2024-02-21T06:10:10;6.00;5.00;
53658;PMS5003;41524;35.624;139.698;2024-02-21T06:15:09;4.00;4.00;
53658;PMS5003;41524;35.624;139.698;2024-02-21T06:20:10;3.00;3.00;
53658;PMS5003;41524;35.624;139.698;2024-02-21T06:25:09;2.00;2.00;
53658;PMS5003;41524;35.624;139.698;2024-02-21T06:30:09;4.00;4.00;
53658;PMS5003;41524;35.624;139.698;2024-02-21T06:35:08;2.00;2.00;
53658;PMS5003;41524;35.624;139.698;2024-02-21T06:40:10;2.00;2.00;
53658;PMS5003;41524;35.624;139.698;2024-02-21T06:45:09;5.00;4.00;
53658;PMS5003;41524;35.624;139.698;2024-02-21T06:50:10;4.00;2.00;
53658;PMS5003;41524;35.624;139.698;2024-02-21T06:55:10;2.00;2.00;
53658;PMS5003;41524;35.624;139.698;2024-02-21T07:00:09;2.00;2.00;
53658;PMS5003;41524;35.624;139.698;2024-02-21T07:05:09;2.00;2.00;
53658;PMS5003;41524;35.624;139.698;2024-02-21T07:10:09;4.00;4.00;
53658;PMS5003;41524;35.624;139.698;2024-02-21T07:15:08;4.00;3.00;
53658;PMS5003;41524;35.624;139.698;2024-02-21T07:20:09;3.00;3.00;
53658;PMS5003;41524;35.624;139.698;2024-02-21T07:25:09;6.00;4.00;
53658;PMS5003;41524;35.624;139.698;2024-02-21T07:30:09;3.00;3.00;
53658;PMS5003;41524;35.624;139.698;2024-02-21T07:35:09;3.00;3.00;
53658;PMS5003;41524;35.624;139.698;2024-02-21T07:40:12;3.00;3.00;
53658;PMS5003;41524;35.624;139.698;2024-02-21T07:45:10;3.00;3.00;
53658;PMS5003;41524;35.624;139.698;2024-02-21T07:50:09;5.00;5.00;
53658;PMS5003;41524;35.624;139.698;2024-02-21T07:55:10;4.00;4.00;
53658;PMS5003;41524;35.624;139.698;2024-02-21T08:00:09;4.00;4.00;
53658;PMS5003;41524;35.624;139.698;2024-02-21T08:05:09;3.00;3.00;
53658;PMS5003;41524;35.624;139.698;2024-02-21T08:10:08;7.00;7.00;
53658;PMS5003;41524;35.624;139.698;2024-02-21T08:15:09;6.00;6.00;
53658;PMS5003;41524;35.624;139.698;2024-02-21T08:20:10;4.00;4.00;
53658;PMS5003;41524;35.624;139.698;2024-02-21T08:25:09;9.00;7.00;
53658;PMS5003;41524;35.624;139.698;2024-02-21T08:30:11;7.00;4.00;
53658;PMS5003;41524;35.624;139.698;2024-02-21T08:35:10;8.00;7.00;
53658;PMS5003;41524;35.624;139.698;2024-02-21T08:40:10;9.00;9.00;
53658;PMS5003;41524;35.624;139.698;2024-02-21T08:45:10;12.00;11.00;
53658;PMS5003;41524;35.624;139.698;2024-02-21T08:50:09;7.00;7.00;
53658;PMS5003;41524;35.624;139.698;2024-02-21T08:55:09;12.00;9.00;
53658;PMS5003;41524;35.624;139.698;2024-02-21T09:00:10;11.00;9.00;
53658;PMS5003;41524;35.624;139.698;2024-02-21T09:05:11;14.00;12.00;
53658;PMS5003;41524;35.624;139.698;2024-02-21T09:10:09;10.00;10.00;
53658;PMS5003;41524;35.624;139.698;2024-02-21T09:15:09;11.00;11.00;
53658;PMS5003;41524;35.624;139.698;2024-02-21T09:20:10;10.00;10.00;
53658;PMS5003;41524;35.624;139.698;2024-02-21T09:25:09;6.00;6.00;
53658;PMS5003;41524;35.624;139.698;2024-02-21T09:30:10;7.00;7.00;
53658;PMS5003;41524;35.624;139.698;2024-02-21T09:35:10;8.00;7.00;
53658;PMS5003;41524;35.624;139.698;2024-02-21T09:40:09;6.00;6.00;
53658;PMS5003;41524;35.624;139.698;2024-02-21T09:45:23;8.00;8.00;
53658;PMS5003;41524;35.624;139.698;2024-02-21T09:50:14;8.00;8.00;
53658;PMS5003;41524;35.624;139.698;2024-02-21T09:55:08;14.00;12.00;
53658;PMS5003;41524;35.624;139.698;2024-02-21T10:00:09;11.00;11.00;
53658;PMS5003;41524;35.624;139.698;2024-02-21T10:05:09;11.00;9.00;
53658;PMS5003;41524;35.624;139.698;2024-02-21T10:10:10;16.00;14.00;
53658;PMS5003;41524;35.624;139.698;2024-02-21T10:15:09;18.00;14.00;
53658;PMS5003;41524;35.624;139.698;2024-02-21T10:20:09;17.00;17.00;
53658;PMS5003;41524;35.624;139.698;2024-02-21T10:25:09;21.00;21.00;
53658;PMS5003;41524;35.624;139.698;2024-02-21T10:30:12;14.00;12.00;
53658;PMS5003;41524;35.624;139.698;2024-02-21T10:35:09;19.00;19.00;
53658;PMS5003;41524;35.624;139.698;2024-02-21T10:40:09;19.00;17.00;
53658;PMS5003;41524;35.624;139.698;2024-02-21T10:45:15;24.00;24.00;
53658;PMS5003;41524;35.624;139.698;2024-02-21T10:50:09;19.00;18.00;
53658;PMS5003;41524;35.624;139.698;2024-02-21T10:55:24;21.00;17.00;
53658;PMS5003;41524;35.624;139.698;2024-02-21T11:00:15;20.00;18.00;
53658;PMS5003;41524;35.624;139.698;2024-02-21T11:05:10;17.00;16.00;
53658;PMS5003;41524;35.624;139.698;2024-02-21T11:10:20;15.00;14.00;
53658;PMS5003;41524;35.624;139.698;2024-02-21T11:15:08;30.00;27.00;
53658;PMS5003;41524;35.624;139.698;2024-02-21T11:20:13;22.00;18.00;
53658;PMS5003;41524;35.624;139.698;2024-02-21T11:25:09;18.00;18.00;
53658;PMS5003;41524;35.624;139.698;2024-02-21T11:30:11;25.00;23.00;
53658;PMS5003;41524;35.624;139.698;2024-02-21T11:35:09;22.00;21.00;
53658;PMS5003;41524;35.624;139.698;2024-02-21T11:40:09;22.00;21.00;
53658;PMS5003;41524;35.624;139.698;2024-02-21T11:45:09;27.00;24.00;
53658;PMS5003;41524;35.624;139.698;2024-02-21T11:50:10;28.00;23.00;
53658;PMS5003;41524;35.624;139.698;2024-02-21T11:55:08;29.00;28.00;
53658;PMS5003;41524;35.624;139.698;2024-02-21T12:00:15;22.00;20.00;
53658;PMS5003;41524;35.624;139.698;2024-02-21T12:05:11;21.00;19.00;
53658;PMS5003;41524;35.624;139.698;2024-02-21T12:10:10;24.00;22.00;
53658;PMS5003;41524;35.624;139.698;2024-02-21T12:15:11;36.00;28.00;
53658;PMS5003;41524;35.624;139.698;2024-02-21T12:20:09;19.00;19.00;
53658;PMS5003;41524;35.624;139.698;2024-02-21T12:25:16;26.00;24.00;
53658;PMS5003;41524;35.624;139.698;2024-02-21T12:30:09;24.00;22.00;
53658;PMS5003;41524;35.624;139.698;2024-02-21T12:35:15;21.00;21.00;
53658;PMS5003;41524;35.624;139.698;2024-02-21T12:40:09;28.00;24.00;
53658;PMS5003;41524;35.624;139.698;2024-02-21T12:45:09;26.00;24.00;
53658;PMS5003;41524;35.624;139.698;2024-02-21T12:50:15;27.00;27.00;
53658;PMS5003;41524;35.624;139.698;2024-02-21T12:55:09;21.00;21.00;
53658;PMS5003;41524;35.624;139.698;2024-02-21T13:00:16;28.00;26.00;
53658;PMS5003;41524;35.624;139.698;2024-02-21T13:05:15;29.00;26.00;
53658;PMS5003;41524;35.624;139.698;2024-02-21T13:10:14;25.00;24.00;
53658;PMS5003;41524;35.624;139.698;2024-02-21T13:15:09;38.00;35.00;
53658;PMS5003;41524;35.624;139.698;2024-02-21T13:20:09;33.00;32.00;
53658;PMS5003;41524;35.624;139.698;2024-02-21T13:25:09;25.00;24.00;
53658;PMS5003;41524;35.624;139.698;2024-02-21T13:30:09;22.00;22.00;
53658;PMS5003;41524;35.624;139.698;2024-02-21T13:35:09;29.00;23.00;
53658;PMS5003;41524;35.624;139.698;2024-02-21T13:40:09;20.00;18.00;
53658;PMS5003;41524;35.624;139.698;2024-02-21T13:45:09;19.00;17.00;
53658;PMS5003;41524;35.624;139.698;2024-02-21T13:50:11;14.00;13.00;
53658;PMS5003;41524;35.624;139.698;2024-02-21T13:55:09;12.00;10.00;
53658;PMS5003;41524;35.624;139.698;2024-02-21T14:00:10;13.00;11.00;
53658;PMS5003;41524;35.624;139.698;2024-02-21T14:05:10;12.00;10.00;
53658;PMS5003;41524;35.624;139.698;2024-02-21T14:10:09;11.00;10.00;
53658;PMS5003;41524;35.624;139.698;2024-02-21T14:15:09;9.00;9.00;
53658;PMS5003;41524;35.624;139.698;2024-02-21T14:20:09;12.00;10.00;
53658;PMS5003;41524;35.624;139.698;2024-02-21T14:25:10;10.00;10.00;
53658;PMS5003;41524;35.624;139.698;2024-02-21T14:30:10;10.00;7.00;
53658;PMS5003;41524;35.624;139.698;2024-02-21T14:35:09;12.00;10.00;
53658;PMS5003;41524;35.624;139.698;2024-02-21T14:40:09;11.00;10.00;
53658;PMS5003;41524;35.624;139.698;2024-02-21T14:46:11;10.00;10.00;
53658;PMS5003;41524;35.624;139.698;2024-02-21T14:50:23;9.00;8.00;
53658;PMS5003;41524;35.624;139.698;2024-02-21T14:55:09;8.00;8.00;
53658;PMS5003;41524;35.624;139.698;2024-02-21T15:00:14;12.00;10.00;
53658;PMS5003;41524;35.624;139.698;2024-02-21T15:05:09;7.00;7.00;
53658;PMS5003;41524;35.624;139.698;2024-02-21T15:10:24;6.00;6.00;
53658;PMS5003;41524;35.624;139.698;2024-02-21T15:15:09;7.00;7.00;
53658;PMS5003;41524;35.624;139.698;2024-02-21T15:20:09;11.00;11.00;
53658;PMS5003;41524;35.624;139.698;2024-02-21T15:25:09;8.00;8.00;
53658;PMS5003;41524;35.624;139.698;2024-02-21T15:30:10;7.00;7.00;
53658;PMS5003;41524;35.624;139.698;2024-02-21T15:35:09;7.00;7.00;
53658;PMS5003;41524;35.624;139.698;2024-02-21T15:40:09;6.00;6.00;
53658;PMS5003;41524;35.624;139.698;2024-02-21T15:45:12;6.00;4.00;
53658;PMS5003;41524;35.624;139.698;2024-02-21T15:50:10;5.00;5.00;
53658;PMS5003;41524;35.624;139.698;2024-02-21T15:55:09;4.00;4.00;
53658;PMS5003;41524;35.624;139.698;2024-02-21T16:00:09;5.00;5.00;
53658;PMS5003;41524;35.624;139.698;2024-02-21T16:05:09;7.00;7.00;
53658;PMS5003;41524;35.624;139.698;2024-02-21T16:10:09;5.00;5.00;
53658;PMS5003;41524;35.624;139.698;2024-02-21T16:15:08;8.00;8.00;
53658;PMS5003;41524;35.624;139.698;2024-02-21T16:20:09;9.00;9.00;
53658;PMS5003;41524;35.624;139.698;2024-02-21T16:25:10;10.00;9.00;
53658;PMS5003;41524;35.624;139.698;2024-02-21T16:30:09;11.00;10.00;
53658;PMS5003;41524;35.624;139.698;2024-02-21T16:35:10;12.00;11.00;
53658;PMS5003;41524;35.624;139.698;2024-02-21T16:40:09;12.00;12.00;
53658;PMS5003;41524;35.624;139.698;2024-02-21T16:45:09;10.00;10.00;
53658;PMS5003;41524;35.624;139.698;2024-02-21T16:50:14;9.00;9.00;
53658;PMS5003;41524;35.624;139.698;2024-02-21T16:55:09;11.00;9.00;
53658;PMS5003;41524;35.624;139.698;2024-02-21T17:00:10;12.00;12.00;
53658;PMS5003;41524;35.624;139.698;2024-02-21T17:05:09;15.00;13.00;
53658;PMS5003;41524;35.624;139.698;2024-02-21T17:10:10;12.00;12.00;
53658;PMS5003;41524;35.624;139.698;2024-02-21T17:15:10;13.00;13.00;
53658;PMS5003;41524;35.624;139.698;2024-02-21T17:20:10;13.00;13.00;
53658;PMS5003;41524;35.624;139.698;2024-02-21T17:25:17;14.00;13.00;
53658;PMS5003;41524;35.624;139.698;2024-02-21T17:30:09;14.00;14.00;
53658;PMS5003;41524;35.624;139.698;2024-02-21T17:35:09;19.00;17.00;
53658;PMS5003;41524;35.624;139.698;2024-02-21T17:40:09;20.00;17.00;
53658;PMS5003;41524;35.624;139.698;2024-02-21T17:45:10;22.00;21.00;
53658;PMS5003;41524;35.624;139.698;2024-02-21T17:50:09;21.00;19.00;
53658;PMS5003;41524;35.624;139.698;2024-02-21T17:55:10;20.00;20.00;
53658;PMS5003;41524;35.624;139.698;2024-02-21T18:00:24;24.00;23.00;
53658;PMS5003;41524;35.624;139.698;2024-02-21T18:05:10;20.00;17.00;
53658;PMS5003;41524;35.624;139.698;2024-02-21T18:10:10;19.00;18.00;
53658;PMS5003;41524;35.624;139.698;2024-02-21T18:15:09;11.00;11.00;
53658;PMS5003;41524;35.624;139.698;2024-02-21T18:20:26;8.00;8.00;
53658;PMS5003;41524;35.624;139.698;2024-02-21T18:25:10;8.00;7.00;
53658;PMS5003;41524;35.624;139.698;2024-02-21T18:30:10;3.00;3.00;
53658;PMS5003;41524;35.624;139.698;2024-02-21T18:35:09;3.00;3.00;
53658;PMS5003;41524;35.624;139.698;2024-02-21T18:40:09;4.00;4.00;
53658;PMS5003;41524;35.624;139.698;2024-02-21T18:45:09;4.00;4.00;
53658;PMS5003;41524;35.624;139.698;2024-02-21T18:50:10;4.00;4.00;
53658;PMS5003;41524;35.624;139.698;2024-02-21T18:55:12;3.00;3.00;
53658;PMS5003;41524;35.624;139.698;2024-02-21T19:00:10;3.00;3.00;
53658;PMS5003;41524;35.624;139.698;2024-02-21T19:05:09;3.00;2.00;
53658;PMS5003;41524;35.624;139.698;2024-02-21T19:10:11;2.00;1.00;
53658;PMS5003;41524;35.624;139.698;2024-02-21T19:15:09;0.00;0.00;
53658;PMS5003;41524;35.624;139.698;2024-02-21T19:20:10;0.00;0.00;
53658;PMS5003;41524;35.624;139.698;2024-02-21T19:25:09;1.00;1.00;
53658;PMS5003;41524;35.624;139.698;2024-02-21T19:30:10;0.00;0.00;
53658;PMS5003;41524;35.624;139.698;2024-02-21T19:35:08;0.00;0.00;
53658;PMS5003;41524;35.624;139.698;2024-02-21T19:40:09;1.00;1.00;
53658;PMS5003;41524;35.624;139.698;2024-02-21T19:45:10;0.00;0.00;
53658;PMS5003;41524;35.624;139.698;2024-02-21T19:50:09;1.00;1.00;
53658;PMS5003;41524;35.624;139.698;2024-02-21T19:55:10;0.00;0.00;
53658;PMS5003;41524;35.624;139.698;2024-02-21T20:00:09;1.00;1.00;
53658;PMS5003;41524;35.624;139.698;2024-02-21T20:05:09;1.00;1.00;
53658;PMS5003;41524;35.624;139.698;2024-02-21T20:10:09;4.00;1.00;
53658;PMS5003;41524;35.624;139.698;2024-02-21T20:15:10;2.00;2.00;
53658;PMS5003;41524;35.624;139.698;2024-02-21T20:20:10;1.00;1.00;
53658;PMS5003;41524;35.624;139.698;2024-02-21T20:25:09;1.00;1.00;
53658;PMS5003;41524;35.624;139.698;2024-02-21T20:30:09;2.00;2.00;
53658;PMS5003;41524;35.624;139.698;2024-02-21T20:35:09;1.00;1.00;
53658;PMS5003;41524;35.624;139.698;2024-02-21T20:40:09;2.00;2.00;
53658;PMS5003;41524;35.624;139.698;2024-02-21T20:45:09;3.00;3.00;
53658;PMS5003;41524;35.624;139.698;2024-02-21T20:50:09;4.00;3.00;
53658;PMS5003;41524;35.624;139.698;2024-02-21T20:55:10;6.00;6.00;
53658;PMS5003;41524;35.624;139.698;2024-02-21T21:00:10;3.00;3.00;
53658;PMS5003;41524;35.624;139.698;2024-02-21T21:05:10;4.00;4.00;
53658;PMS5003;41524;35.624;139.698;2024-02-21T21:10:09;3.00;3.00;
53658;PMS5003;41524;35.624;139.698;2024-02-21T21:15:09;3.00;3.00;
53658;PMS5003;41524;35.624;139.698;2024-02-21T21:20:10;2.00;2.00;
53658;PMS5003;41524;35.624;139.698;2024-02-21T21:25:10;3.00;3.00;
53658;PMS5003;41524;35.624;139.698;2024-02-21T21:30:22;3.00;3.00;
53658;PMS5003;41524;35.624;139.698;2024-02-21T21:35:09;1.00;1.00;
53658;PMS5003;41524;35.624;139.698;2024-02-21T21:40:10;2.00;2.00;
53658;PMS5003;41524;35.624;139.698;2024-02-21T21:45:10;3.00;2.00;
53658;PMS5003;41524;35.624;139.698;2024-02-21T21:50:16;3.00;3.00;
53658;PMS5003;41524;35.624;139.698;2024-02-21T21:55:09;3.00;1.00;
53658;PMS5003;41524;35.624;139.698;2024-02-21T22:00:23;2.00;2.00;
53658;PMS5003;41524;35.624;139.698;2024-02-21T22:05:09;0.00;0.00;
53658;PMS5003;41524;35.624;139.698;2024-02-21T22:10:09;2.00;1.00;
53658;PMS5003;41524;35.624;139.698;2024-02-21T22:15:09;3.00;3.00;
53658;PMS5003;41524;35.624;139.698;2024-02-21T22:20:14;6.00;5.00;
53658;PMS5003;41524;35.624;139.698;2024-02-21T22:25:10;5.00;5.00;
53658;PMS5003;41524;35.624;139.698;2024-02-21T22:30:09;4.00;4.00;
53658;PMS5003;41524;35.624;139.698;2024-02-21T22:35:09;5.00;4.00;
53658;PMS5003;41524;35.624;139.698;2024-02-21T22:40:10;7.00;7.00;
53658;PMS5003;41524;35.624;139.698;2024-02-21T22:45:09;8.00;8.00;
53658;PMS5003;41524;35.624;139.698;2024-02-21T22:50:09;7.00;6.00;
53658;PMS5003;41524;35.624;139.698;2024-02-21T22:55:09;7.00;6.00;
53658;PMS5003;41524;35.624;139.698;2024-02-21T23:00:10;5.00;5.00;
53658;PMS5003;41524;35.624;139.698;2024-02-21T23:05:09;5.00;5.00;
53658;PMS5003;41524;35.624;139.698;2024-02-21T23:10:09;6.00;6.00;
53658;PMS5003;41524;35.624;139.698;2024-02-21T23:15:09;5.00;5.00;
53658;PMS5003;41524;35.624;139.698;2024-02-21T23:20:09;7.00;6.00;
53658;PMS5003;41524;35.624;139.698;2024-02-21T23:25:09;7.00;6.00;
53658;PMS5003;41524;35.624;139.698;2024-02-21T23:30:10;8.00;7.00;
53658;PMS5003;41524;35.624;139.698;2024-02-21T23:35:09;6.00;6.00;
53658;PMS5003;41524;35.624;139.698;2024-02-21T23:40:09;3.00;3.00;
53658;PMS5003;41524;35.624;139.698;2024-02-21T23:45:09;5.00;5.00;
53658;PMS5003;41524;35.624;139.698;2024-02-21T23:50:10;5.00;5.00;
53658;PMS5003;41524;35.624;139.698;2024-02-21T23:55:09;4.00;4.00;
